CheckWX is a tool to help pilots better visualize weather data.  It is not intended as a substitute for an official pre-flight weather briefing.

07:32:42 UTC

GVNP METAR
Praia International Airport
Praia, Cape Verde
Current

33 mins ago

GVNP 210700Z 02015KT 9000 FEW015 25/21 Q1013 NOSIG
Observed
Oct-21 @ 07:00 UTC
Wind
  • 020° at 15 KTS
Visibility
9,000 meters
Flight Rules
VFR
Cloud Levels
  • Few at 1,500' AGL
Temperature
25°C / 77°F
Dewpoint
21°C / 70°F
Humidity
79%
Altimeter
29.91" Hg
Pressure
1012.92 hPa
Previous

2 hours ago

GVNP 210600Z 02014KT 9000 FEW015 25/21 Q1013 NOSIG
Observed
Oct-21 @ 06:00 UTC
Wind
  • 020° at 14 KTS
Visibility
9,000 meters
Flight Rules
VFR
Cloud Levels
  • Few at 1,500' AGL
Temperature
25°C / 77°F
Dewpoint
21°C / 70°F
Humidity
79%
Altimeter
29.91" Hg
Pressure
1012.92 hPa
Previous

3 hours ago

GVNP 210500Z 03015KT 9999 FEW015 25/21 Q1012 NOSIG
Observed
Oct-21 @ 05:00 UTC
Wind
  • 030° at 15 KTS
Visibility
10,000+ meters
Flight Rules
VFR
Cloud Levels
  • Few at 1,500' AGL
Temperature
25°C / 77°F
Dewpoint
21°C / 70°F
Humidity
79%
Altimeter
29.88" Hg
Pressure
1011.92 hPa